createdAt,value
2023-05-17T00:00:34.725Z,93.60
2023-05-17T00:01:50.936Z,93.56
2023-05-17T00:02:53.817Z,93.51
2023-05-17T00:03:56.938Z,93.24
2023-05-17T00:04:59.717Z,93.27
2023-05-17T00:06:02.536Z,93.29
2023-05-17T00:07:05.318Z,93.13
2023-05-17T00:08:08.113Z,93.16
2023-05-17T00:09:11.088Z,93.45
2023-05-17T00:10:13.886Z,93.35
2023-05-17T00:11:16.780Z,93.30
2023-05-17T00:12:19.530Z,93.21
2023-05-17T00:13:22.368Z,93.41
2023-05-17T00:14:25.222Z,93.31
2023-05-17T00:15:28.293Z,93.46
2023-05-17T00:16:31.202Z,93.40
2023-05-17T00:17:34.236Z,93.28
2023-05-17T00:18:37.204Z,93.42
2023-05-17T00:19:40.077Z,93.44
2023-05-17T00:20:42.925Z,93.38
2023-05-17T00:21:45.944Z,93.48
2023-05-17T00:22:48.853Z,93.22
2023-05-17T00:23:51.684Z,93.30
2023-05-17T00:24:54.512Z,93.12
2023-05-17T00:25:57.201Z,93.38
2023-05-17T00:26:59.914Z,93.49
2023-05-17T00:28:02.661Z,93.29
2023-05-17T00:29:05.531Z,93.35
2023-05-17T00:30:08.488Z,93.27
2023-05-17T00:31:12.805Z,93.10
2023-05-17T00:32:16.035Z,93.39
2023-05-17T00:33:18.850Z,93.44
2023-05-17T00:34:22.311Z,93.41
2023-05-17T00:35:25.596Z,93.12
2023-05-17T00:36:28.512Z,92.96
2023-05-17T00:37:31.251Z,93.50
2023-05-17T00:38:34.083Z,93.46
2023-05-17T00:39:37.627Z,93.01
2023-05-17T00:40:40.495Z,93.18
2023-05-17T00:41:43.494Z,93.47
2023-05-17T00:42:46.268Z,93.25
2023-05-17T00:43:49.223Z,93.13
2023-05-17T00:44:51.976Z,93.10
2023-05-17T00:45:54.832Z,92.80
2023-05-17T00:46:59.804Z,92.93
2023-05-17T00:48:02.901Z,93.05
2023-05-17T00:49:05.846Z,93.03
2023-05-17T00:50:08.842Z,93.29
2023-05-17T00:51:12.049Z,92.94
2023-05-17T00:52:14.883Z,93.10
2023-05-17T00:53:18.051Z,93.16
2023-05-17T00:54:21.452Z,93.07
2023-05-17T00:55:24.390Z,93.22
2023-05-17T00:56:27.923Z,93.27
2023-05-17T00:57:32.150Z,93.07
2023-05-17T00:58:37.492Z,93.18
2023-05-17T00:59:42.331Z,93.06
2023-05-17T01:00:46.011Z,93.15
2023-05-17T01:01:48.762Z,92.78
2023-05-17T01:02:51.774Z,92.75
2023-05-17T01:03:54.661Z,93.01
2023-05-17T01:04:57.574Z,93.17
2023-05-17T01:06:00.530Z,93.09
2023-05-17T01:07:03.485Z,93.08
2023-05-17T01:08:06.245Z,93.10
2023-05-17T01:09:09.405Z,93.20
2023-05-17T01:10:12.476Z,93.29
2023-05-17T01:11:24.183Z,93.23
2023-05-17T01:12:33.201Z,92.95
2023-05-17T01:13:42.345Z,93.05
2023-05-17T01:15:11.577Z,93.14
2023-05-17T01:16:22.842Z,93.21
2023-05-17T01:17:31.957Z,93.26
2023-05-17T01:18:46.816Z,93.25
2023-05-17T01:20:08.393Z,93.07
2023-05-17T01:21:31.651Z,93.30
2023-05-17T01:22:47.945Z,93.22
2023-05-17T01:24:11.514Z,93.17
2023-05-17T01:25:40.646Z,93.30
2023-05-17T01:26:44.278Z,93.27
2023-05-17T01:27:49.425Z,93.22
2023-05-17T01:28:53.618Z,93.15
2023-05-17T01:29:58.232Z,93.25
2023-05-17T01:32:53.733Z,93.25
2023-05-17T01:33:58.830Z,93.30
2023-05-17T01:35:04.700Z,93.26
2023-05-17T01:36:08.387Z,93.12
2023-05-17T01:37:11.419Z,93.33
2023-05-17T01:38:14.150Z,93.32
2023-05-17T01:39:16.873Z,93.30
2023-05-17T01:40:20.599Z,93.15
2023-05-17T01:41:29.561Z,93.23
2023-05-17T01:42:33.133Z,93.32
2023-05-17T01:43:41.727Z,93.26
2023-05-17T01:44:50.773Z,93.36
2023-05-17T01:46:01.893Z,93.27
2023-05-17T01:47:21.022Z,93.35
2023-05-17T01:48:28.536Z,93.19
2023-05-17T01:49:37.653Z,93.27
2023-05-17T01:50:41.783Z,93.22
2023-05-17T01:51:49.578Z,93.26
2023-05-17T01:53:10.713Z,93.28
2023-05-17T01:54:21.995Z,93.41
2023-05-17T01:55:27.279Z,93.14
2023-05-17T01:56:34.142Z,93.22
2023-05-17T01:57:37.459Z,93.39
2023-05-17T01:58:45.216Z,93.30
2023-05-17T01:59:49.559Z,93.23
2023-05-17T02:00:56.501Z,93.17
2023-05-17T02:02:06.385Z,93.25
2023-05-17T02:03:12.649Z,93.08
2023-05-17T02:04:15.602Z,93.24
2023-05-17T02:05:18.612Z,93.20
2023-05-17T02:06:21.459Z,93.08
2023-05-17T02:07:24.220Z,92.95
2023-05-17T02:08:27.011Z,92.87
2023-05-17T02:09:30.092Z,92.95
2023-05-17T02:10:32.912Z,93.00
2023-05-17T02:11:36.412Z,93.05
2023-05-17T02:12:39.941Z,92.98
2023-05-17T02:13:42.687Z,92.89
2023-05-17T02:14:45.656Z,92.72
2023-05-17T02:15:48.456Z,92.92
2023-05-17T02:16:51.285Z,93.01
2023-05-17T02:17:54.100Z,93.04
2023-05-17T02:18:56.968Z,93.04
2023-05-17T02:19:59.804Z,93.09
2023-05-17T02:21:04.077Z,93.04
2023-05-17T02:22:06.842Z,93.07
2023-05-17T02:23:09.622Z,93.05
2023-05-17T02:24:12.376Z,93.12
2023-05-17T02:25:15.240Z,93.23
2023-05-17T02:26:17.982Z,93.21
2023-05-17T02:27:20.782Z,93.26
2023-05-17T02:28:23.567Z,93.25
2023-05-17T02:29:26.325Z,93.29
2023-05-17T02:30:29.099Z,93.25
2023-05-17T02:31:32.685Z,93.23
2023-05-17T02:32:35.573Z,93.29
2023-05-17T02:33:38.557Z,93.28
2023-05-17T02:34:41.407Z,93.37
2023-05-17T02:35:44.181Z,93.09
2023-05-17T02:36:48.481Z,93.26
2023-05-17T02:37:52.061Z,93.33
2023-05-17T02:38:55.561Z,93.16
2023-05-17T02:39:58.371Z,93.24
2023-05-17T02:41:01.116Z,93.31
2023-05-17T02:42:03.948Z,93.33
2023-05-17T02:43:06.690Z,93.27
2023-05-17T02:44:12.383Z,93.37
2023-05-17T02:45:15.195Z,93.37
2023-05-17T02:46:18.045Z,93.35
2023-05-17T02:47:23.853Z,93.41
2023-05-17T02:48:26.696Z,93.28
2023-05-17T02:49:29.598Z,93.36
2023-05-17T02:50:32.336Z,93.33
2023-05-17T02:51:35.449Z,93.31
2023-05-17T02:52:40.805Z,93.36
2023-05-17T02:53:43.762Z,93.32
2023-05-17T02:54:47.837Z,93.38
2023-05-17T02:55:51.538Z,93.40
2023-05-17T02:56:54.299Z,93.20
2023-05-17T02:57:57.118Z,93.19
2023-05-17T02:59:01.383Z,93.31
2023-05-17T03:00:06.090Z,93.48
2023-05-17T03:01:09.617Z,93.41
2023-05-17T03:02:12.444Z,93.40
2023-05-17T03:03:15.452Z,93.44
2023-05-17T03:04:20.302Z,93.40
2023-05-17T03:05:23.463Z,93.20
2023-05-17T03:06:27.841Z,93.26
2023-05-17T03:07:30.827Z,93.50
2023-05-17T03:08:33.779Z,93.24
2023-05-17T03:09:37.608Z,93.31
2023-05-17T03:10:40.770Z,93.40
2023-05-17T03:11:44.450Z,93.54
2023-05-17T03:12:53.702Z,93.34
2023-05-17T03:13:58.536Z,93.12
2023-05-17T03:15:04.311Z,93.23
2023-05-17T03:16:08.072Z,93.24
2023-05-17T03:17:10.892Z,93.38
2023-05-17T03:18:14.759Z,93.20
2023-05-17T03:19:18.590Z,93.28
2023-05-17T03:20:21.867Z,93.14
2023-05-17T03:21:24.867Z,93.33
2023-05-17T03:22:28.230Z,93.30
2023-05-17T03:23:31.348Z,93.35
2023-05-17T03:24:35.988Z,93.10
2023-05-17T03:25:38.962Z,93.25
2023-05-17T03:26:41.833Z,93.35
2023-05-17T03:27:46.617Z,93.38
2023-05-17T03:28:51.273Z,93.48
2023-05-17T03:29:54.936Z,93.35
2023-05-17T03:30:59.494Z,93.19
2023-05-17T03:32:06.522Z,93.39
2023-05-17T03:33:09.625Z,93.19
2023-05-17T03:34:12.490Z,93.38
2023-05-17T03:35:15.870Z,93.23
2023-05-17T03:36:21.924Z,93.17
2023-05-17T03:37:24.924Z,93.42
2023-05-17T03:38:27.805Z,93.31
2023-05-17T03:39:31.327Z,93.20
2023-05-17T03:40:34.104Z,93.10
2023-05-17T03:41:37.249Z,93.07
2023-05-17T03:42:40.257Z,93.09
2023-05-17T03:43:43.183Z,93.05
2023-05-17T03:44:47.876Z,92.97
2023-05-17T03:45:50.785Z,93.06
2023-05-17T03:46:54.441Z,92.83
2023-05-17T03:47:58.799Z,92.89
2023-05-17T03:49:03.082Z,92.90
2023-05-17T03:50:07.803Z,92.90
2023-05-17T03:51:10.990Z,92.81
2023-05-17T03:52:14.034Z,92.96
2023-05-17T03:53:16.881Z,93.00
2023-05-17T03:54:19.631Z,92.78
2023-05-17T03:55:22.556Z,92.74
2023-05-17T03:56:28.290Z,92.58
2023-05-17T03:57:31.073Z,92.74
2023-05-17T03:58:33.899Z,92.75
2023-05-17T03:59:36.782Z,92.97
2023-05-17T04:00:41.172Z,92.82
2023-05-17T04:01:46.666Z,93.08
2023-05-17T04:02:51.041Z,92.95
2023-05-17T04:03:54.157Z,92.64
2023-05-17T04:04:57.391Z,92.95
2023-05-17T04:06:01.448Z,92.98
2023-05-17T04:07:04.216Z,92.96
2023-05-17T04:08:07.090Z,93.08
2023-05-17T04:09:11.125Z,93.07
2023-05-17T04:10:15.380Z,92.90
2023-05-17T04:11:23.616Z,92.69
2023-05-17T04:12:26.529Z,92.64
2023-05-17T04:13:29.574Z,92.87
2023-05-17T04:14:32.458Z,92.79
2023-05-17T04:15:35.755Z,92.82
2023-05-17T04:16:38.891Z,92.44
2023-05-17T04:17:41.905Z,92.27
2023-05-17T04:18:45.877Z,92.57
2023-05-17T04:19:49.054Z,92.55
2023-05-17T04:20:51.919Z,92.40
2023-05-17T04:21:54.965Z,92.32
2023-05-17T04:22:58.408Z,92.40
2023-05-17T04:24:02.424Z,92.08
2023-05-17T04:25:05.677Z,92.12
2023-05-17T04:26:09.101Z,92.46
2023-05-17T04:27:14.511Z,92.54
2023-05-17T04:28:18.205Z,92.81
2023-05-17T04:29:21.382Z,92.81
2023-05-17T04:30:24.992Z,92.98
2023-05-17T04:31:27.859Z,93.05
2023-05-17T04:32:30.718Z,93.03
2023-05-17T04:33:33.825Z,93.07
2023-05-17T04:34:36.723Z,93.22
2023-05-17T04:35:41.842Z,93.13
2023-05-17T04:36:44.787Z,93.21
2023-05-17T04:37:47.654Z,93.22
2023-05-17T04:38:58.027Z,93.15
2023-05-17T04:40:03.500Z,93.30
2023-05-17T04:41:07.319Z,93.32
2023-05-17T04:42:12.230Z,93.37
2023-05-17T04:43:18.509Z,93.32
2023-05-17T04:44:22.506Z,93.39
2023-05-17T04:45:25.560Z,93.34
2023-05-17T04:46:28.672Z,93.19
2023-05-17T04:47:31.587Z,93.05
2023-05-17T04:48:34.569Z,93.07
2023-05-17T04:49:37.606Z,93.15
2023-05-17T04:50:40.789Z,93.16
2023-05-17T04:51:43.644Z,92.77
2023-05-17T04:52:47.208Z,92.31
2023-05-17T04:53:49.982Z,92.35
2023-05-17T04:54:53.715Z,92.23
2023-05-17T04:55:59.229Z,92.31
2023-05-17T04:57:03.693Z,92.54
2023-05-17T04:58:32.411Z,92.66
2023-05-17T04:59:35.818Z,92.40
2023-05-17T05:00:38.711Z,91.98
2023-05-17T05:01:42.401Z,92.19
2023-05-17T05:02:45.146Z,92.38
2023-05-17T05:03:48.998Z,92.50
2023-05-17T05:04:52.219Z,92.35
2023-05-17T05:05:55.256Z,92.30
2023-05-17T05:06:58.260Z,92.37
2023-05-17T05:08:01.273Z,92.54
2023-05-17T05:09:04.490Z,92.05
2023-05-17T05:10:11.742Z,92.36
2023-05-17T05:11:14.965Z,92.22
2023-05-17T05:12:18.178Z,91.20
2023-05-17T05:13:21.940Z,91.58
2023-05-17T05:14:24.735Z,91.55
2023-05-17T05:15:27.712Z,92.09
2023-05-17T05:16:33.262Z,92.67
2023-05-17T05:17:36.735Z,92.14
2023-05-17T05:18:39.837Z,91.88
2023-05-17T05:19:43.535Z,92.25
2023-05-17T05:20:48.832Z,92.61
2023-05-17T05:21:52.044Z,92.89
2023-05-17T05:22:55.009Z,92.28
2023-05-17T05:23:57.810Z,92.56
2023-05-17T05:25:01.552Z,92.48
2023-05-17T05:26:04.986Z,92.51
2023-05-17T05:27:08.014Z,92.24
2023-05-17T05:28:12.242Z,91.40
2023-05-17T05:29:16.062Z,92.58
2023-05-17T05:30:22.423Z,92.83
2023-05-17T05:31:26.728Z,92.96
2023-05-17T05:32:30.010Z,92.92
2023-05-17T05:33:33.126Z,92.76
2023-05-17T05:34:36.075Z,93.16
2023-05-17T05:35:39.043Z,93.41
2023-05-17T05:36:43.091Z,93.59
2023-05-17T05:37:46.159Z,93.69
2023-05-17T05:38:49.271Z,93.79
2023-05-17T05:39:52.192Z,93.84
2023-05-17T05:40:55.591Z,93.99
2023-05-17T05:41:58.385Z,93.82
2023-05-17T05:43:01.219Z,93.90
2023-05-17T05:44:04.057Z,93.05
2023-05-17T05:45:07.171Z,91.70
2023-05-17T05:46:10.330Z,92.33
2023-05-17T05:47:13.114Z,92.87
2023-05-17T05:48:15.950Z,93.15
2023-05-17T05:49:19.424Z,93.31
2023-05-17T05:50:22.151Z,93.30
2023-05-17T05:51:25.532Z,93.40
2023-05-17T05:52:28.374Z,93.44
2023-05-17T05:53:31.527Z,93.56
2023-05-17T05:54:35.130Z,93.77
2023-05-17T05:55:42.289Z,93.79
2023-05-17T05:56:45.127Z,93.64
2023-05-17T05:57:48.824Z,92.90
2023-05-17T05:58:51.600Z,93.03
2023-05-17T05:59:54.664Z,92.37
2023-05-17T06:00:57.524Z,92.47
2023-05-17T06:02:00.524Z,92.78
2023-05-17T06:03:03.443Z,93.09
2023-05-17T06:04:06.337Z,93.00
2023-05-17T06:05:09.352Z,93.00
2023-05-17T06:06:12.412Z,92.76
2023-05-17T06:07:15.703Z,91.21
2023-05-17T06:08:18.470Z,91.87
2023-05-17T06:09:21.209Z,90.85
2023-05-17T06:10:24.526Z,86.00
2023-05-17T06:11:27.397Z,89.51
2023-05-17T06:12:30.154Z,89.05
2023-05-17T06:13:32.834Z,90.34
2023-05-17T06:14:37.516Z,90.75
2023-05-17T06:15:40.874Z,91.09
2023-05-17T06:16:43.616Z,89.73
2023-05-17T06:17:46.692Z,89.04
2023-05-17T06:18:51.230Z,88.76
2023-05-17T06:19:55.046Z,90.28
2023-05-17T06:20:57.917Z,91.25
2023-05-17T06:22:00.650Z,91.89
2023-05-17T06:23:05.207Z,92.36
2023-05-17T06:24:08.108Z,92.84
2023-05-17T06:25:13.990Z,92.73
2023-05-17T06:26:16.827Z,92.25
2023-05-17T06:27:19.611Z,92.53
2023-05-17T06:28:22.364Z,92.92
2023-05-17T06:29:25.206Z,86.95
2023-05-17T06:30:28.252Z,85.66
2023-05-17T06:31:31.157Z,84.71
2023-05-17T06:32:33.986Z,85.13
2023-05-17T06:33:36.837Z,85.73
2023-05-17T06:34:40.131Z,88.83
2023-05-17T06:35:55.532Z,89.39
2023-05-17T06:36:59.367Z,84.46
2023-05-17T06:38:02.289Z,86.11
2023-05-17T06:39:04.999Z,80.20
2023-05-17T06:40:16.111Z,84.23
2023-05-17T06:41:19.860Z,85.68
2023-05-17T06:42:22.607Z,84.83
2023-05-17T06:43:25.506Z,82.45
2023-05-17T06:44:28.541Z,80.72
2023-05-17T06:45:31.304Z,80.26
2023-05-17T06:46:34.118Z,84.00
2023-05-17T06:47:37.206Z,81.39
2023-05-17T06:48:40.271Z,81.09
2023-05-17T06:49:43.749Z,81.81
2023-05-17T06:50:46.611Z,81.26
2023-05-17T06:51:49.378Z,81.52
2023-05-17T06:52:52.114Z,82.72
2023-05-17T06:53:55.019Z,82.61
2023-05-17T06:54:57.919Z,81.33
2023-05-17T06:56:00.604Z,79.72
2023-05-17T06:57:03.456Z,80.81
2023-05-17T06:58:06.406Z,77.10
2023-05-17T06:59:09.276Z,73.81
2023-05-17T07:00:13.172Z,77.87
2023-05-17T07:01:17.085Z,71.15
2023-05-17T07:02:20.173Z,71.27
2023-05-17T07:03:23.087Z,77.91
2023-05-17T07:04:26.954Z,79.88
2023-05-17T07:05:31.106Z,78.33
2023-05-17T07:06:34.148Z,81.48
2023-05-17T07:07:37.015Z,83.12
2023-05-17T07:08:40.570Z,76.65
2023-05-17T07:09:43.360Z,77.28
2023-05-17T07:10:46.250Z,73.96
2023-05-17T07:11:48.980Z,76.81
2023-05-17T07:12:52.291Z,72.66
2023-05-17T07:13:55.097Z,72.18
2023-05-17T07:14:58.060Z,67.01
2023-05-17T07:16:00.841Z,69.49
2023-05-17T07:17:03.687Z,66.94
2023-05-17T07:18:06.668Z,65.08
2023-05-17T07:19:09.746Z,66.33
2023-05-17T07:20:13.105Z,74.97
2023-05-17T07:21:16.267Z,74.51
2023-05-17T07:22:19.432Z,71.31
2023-05-17T07:23:22.157Z,71.51
2023-05-17T07:24:24.976Z,66.80
2023-05-17T07:25:28.029Z,64.27
2023-05-17T07:26:31.832Z,64.83
2023-05-17T07:27:34.594Z,68.76
2023-05-17T07:28:37.637Z,72.06
2023-05-17T07:29:42.342Z,73.85
2023-05-17T07:30:45.145Z,69.41
2023-05-17T07:31:47.888Z,71.17
2023-05-17T07:32:50.771Z,67.75
2023-05-17T07:33:53.692Z,68.15
2023-05-17T07:34:56.599Z,73.40
2023-05-17T07:35:59.536Z,76.87
2023-05-17T07:37:02.964Z,72.02
2023-05-17T07:38:05.947Z,73.60
2023-05-17T07:39:09.252Z,74.50
2023-05-17T07:40:12.407Z,73.45
2023-05-17T07:41:17.092Z,73.98
2023-05-17T07:42:19.904Z,67.26
2023-05-17T07:43:22.688Z,65.13
2023-05-17T07:44:25.808Z,70.77
2023-05-17T07:45:29.001Z,69.40
2023-05-17T07:46:31.996Z,76.27
2023-05-17T07:47:34.969Z,77.41
2023-05-17T07:48:37.956Z,77.54
2023-05-17T07:49:40.760Z,75.85
2023-05-17T07:50:44.458Z,70.58
2023-05-17T07:51:47.916Z,71.39
2023-05-17T07:52:50.985Z,73.15
2023-05-17T07:53:53.718Z,75.85
2023-05-17T07:54:56.531Z,73.53
2023-05-17T07:55:59.257Z,76.38
2023-05-17T07:57:02.183Z,75.56
2023-05-17T07:58:05.143Z,72.20
2023-05-17T07:59:08.093Z,67.42
2023-05-17T08:00:12.756Z,74.31
2023-05-17T08:01:15.761Z,73.44
2023-05-17T08:02:18.608Z,71.92
2023-05-17T08:03:21.446Z,73.43
2023-05-17T08:04:24.460Z,75.65
2023-05-17T08:05:27.814Z,75.13
2023-05-17T08:06:30.792Z,73.70
2023-05-17T08:07:33.516Z,74.03
2023-05-17T08:08:36.434Z,65.53
2023-05-17T08:09:40.528Z,65.08
2023-05-17T08:10:43.322Z,70.55
2023-05-17T08:11:46.298Z,69.64
2023-05-17T08:12:49.059Z,66.04
2023-05-17T08:13:51.946Z,66.03
2023-05-17T08:14:54.730Z,67.10
2023-05-17T08:16:12.630Z,65.14
2023-05-17T08:17:16.183Z,68.66
2023-05-17T08:18:19.159Z,69.04
2023-05-17T08:19:22.436Z,64.01
2023-05-17T08:20:25.415Z,67.30
2023-05-17T08:21:28.272Z,65.13
2023-05-17T08:22:31.024Z,66.38
2023-05-17T08:23:33.893Z,65.51
2023-05-17T08:24:36.671Z,65.03
2023-05-17T08:25:39.523Z,67.23
2023-05-17T08:26:42.470Z,66.02
2023-05-17T08:27:45.426Z,69.69
2023-05-17T08:28:48.122Z,68.75
2023-05-17T08:29:51.861Z,64.33
2023-05-17T08:30:54.633Z,64.48
2023-05-17T08:32:00.693Z,63.40
2023-05-17T08:33:03.521Z,66.62
2023-05-17T08:34:06.531Z,63.83
2023-05-17T08:35:09.415Z,63.68
2023-05-17T08:36:12.494Z,60.20
2023-05-17T08:37:15.733Z,60.22
2023-05-17T08:38:20.654Z,59.10
2023-05-17T08:39:23.670Z,60.80
2023-05-17T08:40:27.551Z,68.45
2023-05-17T08:41:31.209Z,66.60
2023-05-17T08:42:34.964Z,66.02
2023-05-17T08:43:38.048Z,65.62
2023-05-17T08:44:41.114Z,65.49
2023-05-17T08:45:43.892Z,66.23
2023-05-17T08:46:53.364Z,67.45
2023-05-17T08:47:56.296Z,67.27
2023-05-17T08:49:02.185Z,68.96
2023-05-17T08:50:06.182Z,70.95
2023-05-17T08:51:12.190Z,67.16
2023-05-17T08:52:15.380Z,67.08
2023-05-17T08:53:18.612Z,64.58
2023-05-17T08:54:22.436Z,63.48
2023-05-17T08:55:26.400Z,60.62
2023-05-17T08:56:31.141Z,59.22
2023-05-17T08:57:36.543Z,62.30
2023-05-17T08:58:55.510Z,64.55
2023-05-17T09:00:19.197Z,63.97
2023-05-17T09:01:23.612Z,71.27
2023-05-17T09:02:30.023Z,71.03
2023-05-17T09:03:35.278Z,67.23
2023-05-17T09:04:38.370Z,65.79
2023-05-17T09:05:41.828Z,64.99
2023-05-17T09:06:44.821Z,63.52
2023-05-17T09:07:48.814Z,62.41
2023-05-17T09:08:55.246Z,64.33
2023-05-17T09:09:58.536Z,61.74
2023-05-17T09:11:01.355Z,65.19
2023-05-17T09:12:04.467Z,59.96
2023-05-17T09:13:07.542Z,64.14
2023-05-17T09:14:10.525Z,63.62
2023-05-17T09:15:20.939Z,66.27
2023-05-17T09:16:23.741Z,69.46
2023-05-17T09:17:27.339Z,67.30
2023-05-17T09:18:33.967Z,63.19
2023-05-17T09:19:43.193Z,64.28
2023-05-17T09:20:50.306Z,63.54
2023-05-17T09:21:56.088Z,61.51
2023-05-17T09:22:59.401Z,64.83
2023-05-17T09:24:07.232Z,63.04
2023-05-17T09:25:11.653Z,66.11
2023-05-17T09:26:14.464Z,58.32
2023-05-17T09:27:18.437Z,55.65
2023-05-17T09:28:21.329Z,54.99
2023-05-17T09:29:24.083Z,55.09
2023-05-17T09:30:27.825Z,54.97
2023-05-17T09:31:31.598Z,58.14
2023-05-17T09:32:34.575Z,58.62
2023-05-17T09:33:46.859Z,60.66
2023-05-17T09:34:51.104Z,65.64
2023-05-17T09:35:54.084Z,68.51
2023-05-17T09:36:56.826Z,63.31
2023-05-17T09:38:18.015Z,59.86
2023-05-17T09:39:20.752Z,63.22
2023-05-17T09:40:24.870Z,59.65
2023-05-17T09:41:28.380Z,56.99
2023-05-17T09:42:32.990Z,60.12
2023-05-17T09:43:35.765Z,56.98
2023-05-17T09:44:48.653Z,56.91
2023-05-17T09:45:58.077Z,57.88
2023-05-17T09:47:01.100Z,57.31
2023-05-17T09:48:13.766Z,59.71
2023-05-17T09:49:17.538Z,63.74
2023-05-17T09:50:21.712Z,56.10
2023-05-17T09:51:41.724Z,56.07
2023-05-17T09:52:44.554Z,57.23
2023-05-17T09:53:54.128Z,57.58
2023-05-17T09:54:58.295Z,56.98
2023-05-17T09:56:01.865Z,59.01
2023-05-17T09:57:07.821Z,61.80
2023-05-17T09:58:10.553Z,64.16
2023-05-17T09:59:14.700Z,61.43
2023-05-17T10:00:19.648Z,58.06
2023-05-17T10:01:25.634Z,60.77
2023-05-17T10:02:29.359Z,62.83
2023-05-17T10:03:33.373Z,61.60
2023-05-17T10:04:37.702Z,61.41
2023-05-17T10:05:43.776Z,60.75
2023-05-17T10:06:51.373Z,56.68
2023-05-17T10:07:56.390Z,58.74
2023-05-17T10:09:00.853Z,59.74
2023-05-17T10:10:04.043Z,56.91
2023-05-17T10:11:10.642Z,55.76
2023-05-17T10:12:17.335Z,55.59
2023-05-17T10:13:25.785Z,56.95
2023-05-17T10:14:31.928Z,52.38
2023-05-17T10:15:35.655Z,50.87
2023-05-17T10:16:38.935Z,52.65
2023-05-17T10:17:43.937Z,50.65
2023-05-17T10:18:49.391Z,50.29
2023-05-17T10:19:52.722Z,50.91
2023-05-17T10:20:56.309Z,52.87
2023-05-17T10:22:11.012Z,57.25
2023-05-17T10:23:22.522Z,52.86
2023-05-17T10:24:26.911Z,57.81
2023-05-17T10:25:30.602Z,52.50
2023-05-17T10:26:34.044Z,53.26
2023-05-17T10:27:36.861Z,55.67
2023-05-17T10:28:39.687Z,52.52
2023-05-17T10:29:43.484Z,52.81
2023-05-17T10:30:47.461Z,50.55
2023-05-17T10:31:53.565Z,50.68
2023-05-17T10:32:56.925Z,52.67
2023-05-17T10:34:03.455Z,49.93
2023-05-17T10:35:11.980Z,49.58
2023-05-17T10:36:17.341Z,52.09
2023-05-17T10:37:21.665Z,52.80
2023-05-17T10:38:32.053Z,55.72
2023-05-17T10:39:43.694Z,55.41
2023-05-17T10:40:47.302Z,54.64
2023-05-17T10:41:53.019Z,55.27
2023-05-17T10:42:56.576Z,48.74
2023-05-17T10:43:59.808Z,46.13
2023-05-17T10:45:02.614Z,44.03
2023-05-17T10:46:11.968Z,46.90
2023-05-17T10:47:15.405Z,48.30
2023-05-17T10:48:18.353Z,50.12
2023-05-17T10:49:24.681Z,47.57
2023-05-17T10:50:28.249Z,47.03
2023-05-17T10:51:35.588Z,48.34
2023-05-17T10:52:38.973Z,48.06
2023-05-17T10:54:01.633Z,48.09
2023-05-17T10:55:04.764Z,51.08
2023-05-17T10:56:07.543Z,52.31
2023-05-17T10:57:19.448Z,48.69
2023-05-17T10:58:26.166Z,48.06
2023-05-17T10:59:29.831Z,48.42
2023-05-17T11:00:38.439Z,47.73
2023-05-17T11:01:52.611Z,47.89
2023-05-17T11:03:11.422Z,49.19
2023-05-17T11:04:40.177Z,47.91
2023-05-17T11:05:44.904Z,49.56
2023-05-17T11:06:47.936Z,47.32
2023-05-17T11:07:50.846Z,46.83
2023-05-17T11:09:13.955Z,51.47
2023-05-17T11:10:17.930Z,47.28
2023-05-17T11:11:20.780Z,49.34
2023-05-17T11:12:28.493Z,48.81
2023-05-17T11:13:31.400Z,47.42
2023-05-17T11:14:46.394Z,49.70
2023-05-17T11:16:02.890Z,47.71
2023-05-17T11:17:12.477Z,46.97
2023-05-17T11:18:26.598Z,46.83
2023-05-17T11:19:33.691Z,46.67
2023-05-17T11:20:37.134Z,47.25
2023-05-17T11:21:47.163Z,47.75
2023-05-17T11:23:01.696Z,46.76
2023-05-17T11:24:05.431Z,45.28
2023-05-17T11:25:12.333Z,47.49
2023-05-17T11:26:22.241Z,46.36
2023-05-17T11:27:31.295Z,44.36
2023-05-17T11:28:35.685Z,44.69
2023-05-17T11:29:40.187Z,41.04
2023-05-17T11:30:44.016Z,42.59
2023-05-17T11:31:51.356Z,44.32
2023-05-17T11:32:55.102Z,44.54
2023-05-17T11:33:58.384Z,44.75
2023-05-17T11:35:01.356Z,45.08
2023-05-17T11:36:06.358Z,45.66
2023-05-17T11:37:12.166Z,44.68
2023-05-17T11:38:19.537Z,44.43
2023-05-17T11:39:23.332Z,43.97
2023-05-17T11:40:29.772Z,43.44
2023-05-17T11:41:36.852Z,45.76
2023-05-17T11:42:39.842Z,45.23
2023-05-17T11:43:45.289Z,44.31
2023-05-17T11:44:48.200Z,43.09
2023-05-17T11:45:54.820Z,42.14
2023-05-17T11:47:09.673Z,43.38
2023-05-17T11:48:13.654Z,43.46
2023-05-17T11:49:23.607Z,42.60
2023-05-17T11:50:37.632Z,41.30
2023-05-17T11:51:41.310Z,40.07
2023-05-17T11:52:44.118Z,40.57
2023-05-17T11:53:48.704Z,40.50
2023-05-17T11:54:52.230Z,38.21
2023-05-17T11:55:56.035Z,38.26
2023-05-17T11:57:03.730Z,39.56
2023-05-17T11:58:10.444Z,39.55
2023-05-17T11:59:18.685Z,40.39
2023-05-17T12:00:27.166Z,37.75
2023-05-17T12:01:42.101Z,39.19
2023-05-17T12:02:44.906Z,39.44
2023-05-17T12:03:55.376Z,41.76
2023-05-17T12:04:58.436Z,39.44
2023-05-17T12:06:03.112Z,40.41
2023-05-17T12:07:08.959Z,39.68
2023-05-17T12:08:11.934Z,38.26
2023-05-17T12:09:17.648Z,38.22
2023-05-17T12:10:21.826Z,37.81
2023-05-17T12:11:25.816Z,38.45
2023-05-17T12:12:28.603Z,39.06
2023-05-17T12:13:32.483Z,38.78
2023-05-17T12:14:35.366Z,38.11
2023-05-17T12:15:38.291Z,37.97
2023-05-17T12:16:43.018Z,38.20
2023-05-17T12:17:47.762Z,37.43
2023-05-17T12:18:52.248Z,37.72
2023-05-17T12:19:55.490Z,37.20
2023-05-17T12:20:59.134Z,36.85
2023-05-17T12:22:08.783Z,36.87
2023-05-17T12:23:11.515Z,39.02
2023-05-17T12:24:14.506Z,38.59
2023-05-17T12:25:23.491Z,38.40
2023-05-17T12:26:26.253Z,39.31
2023-05-17T12:27:29.200Z,39.60
2023-05-17T12:28:32.113Z,39.46
2023-05-17T12:29:34.964Z,39.14
2023-05-17T12:30:37.732Z,34.77
2023-05-17T12:31:42.365Z,35.03
2023-05-17T12:32:46.668Z,37.10
2023-05-17T12:33:50.785Z,37.66
2023-05-17T12:34:54.091Z,37.07
2023-05-17T12:35:57.133Z,37.62
2023-05-17T12:36:59.912Z,35.34
2023-05-17T12:38:02.739Z,36.31
2023-05-17T12:39:09.926Z,34.37
2023-05-17T12:40:13.151Z,33.53
2023-05-17T12:41:16.769Z,34.16
2023-05-17T12:42:19.520Z,33.15
2023-05-17T12:43:24.335Z,34.27
2023-05-17T12:44:27.191Z,35.45
2023-05-17T12:45:29.963Z,34.37
2023-05-17T12:46:32.881Z,33.31
2023-05-17T12:47:35.924Z,33.60
2023-05-17T12:48:41.078Z,31.67
2023-05-17T12:49:56.178Z,31.29
2023-05-17T12:51:05.348Z,30.79
2023-05-17T12:52:08.189Z,32.62
2023-05-17T12:53:11.099Z,32.34
2023-05-17T12:54:26.475Z,33.70
2023-05-17T12:55:35.991Z,37.98
2023-05-17T12:56:41.628Z,34.76
2023-05-17T12:57:54.506Z,34.84
2023-05-17T12:59:04.875Z,36.99
2023-05-17T13:00:08.085Z,35.44
2023-05-17T13:01:14.424Z,34.95
2023-05-17T13:02:18.896Z,33.69
2023-05-17T13:03:22.068Z,33.34
2023-05-17T13:04:31.976Z,33.46
2023-05-17T13:05:35.086Z,31.53
2023-05-17T13:06:45.282Z,26.13
2023-05-17T13:07:48.285Z,29.10
2023-05-17T13:09:00.957Z,30.11
2023-05-17T13:10:03.757Z,29.21
2023-05-17T13:11:07.217Z,29.60
2023-05-17T13:12:09.952Z,32.30
2023-05-17T13:13:18.707Z,31.40
2023-05-17T13:14:38.168Z,26.12
2023-05-17T13:15:41.038Z,27.54
2023-05-17T13:16:43.856Z,29.03
2023-05-17T13:17:50.279Z,31.27
2023-05-17T13:18:53.461Z,30.95
2023-05-17T13:19:57.945Z,28.96
2023-05-17T13:21:01.667Z,30.14
2023-05-17T13:22:04.985Z,32.80
2023-05-17T13:23:07.928Z,33.03
2023-05-17T13:24:11.119Z,31.99
2023-05-17T13:25:15.724Z,31.95
2023-05-17T13:26:18.983Z,30.48
2023-05-17T13:27:21.827Z,29.33
2023-05-17T13:28:25.620Z,28.55
2023-05-17T13:29:39.399Z,29.44
2023-05-17T13:30:49.892Z,29.78
2023-05-17T13:31:52.621Z,31.89
2023-05-17T13:32:56.455Z,32.06
2023-05-17T13:33:59.481Z,31.90
2023-05-17T13:35:02.501Z,29.45
2023-05-17T13:36:05.499Z,30.14
2023-05-17T13:37:11.574Z,29.28
2023-05-17T13:38:15.250Z,28.74
2023-05-17T13:39:18.115Z,29.00
2023-05-17T13:40:21.122Z,29.67
2023-05-17T13:41:23.984Z,29.70
2023-05-17T13:42:26.817Z,30.87
2023-05-17T13:43:29.575Z,31.64
2023-05-17T13:44:32.353Z,31.06
2023-05-17T13:45:35.544Z,30.07
2023-05-17T13:46:38.424Z,28.85
2023-05-17T13:47:41.512Z,29.31
2023-05-17T13:48:44.462Z,29.95
2023-05-17T13:49:47.334Z,29.41
2023-05-17T13:50:50.994Z,32.45
2023-05-17T13:51:53.804Z,30.56
2023-05-17T13:52:56.693Z,27.13
2023-05-17T13:53:59.466Z,26.62
2023-05-17T13:55:02.345Z,25.84